createdAt,value
2023-01-12T01:39:36.676Z,100442.84
2023-01-12T01:59:50.653Z,100427.75
2023-01-12T02:41:10.179Z,100380.72
2023-01-12T02:43:38.657Z,100377.41
2023-01-12T02:54:43.188Z,100373.88
2023-01-12T04:04:50.461Z,100347.53
2023-01-12T04:40:38.832Z,100299.06
2023-01-12T04:43:17.872Z,100286.84
2023-01-12T04:46:44.901Z,100291.00
2023-01-12T04:49:37.392Z,100291.94
2023-01-12T04:52:14.778Z,100280.56
2023-01-12T04:55:32.547Z,100284.72
2023-01-12T06:21:49.895Z,100240.59
2023-01-12T06:24:17.070Z,100249.38
2023-01-12T06:26:45.240Z,100247.53
2023-01-12T06:59:30.128Z,100225.91
2023-01-12T07:01:57.354Z,100230.28
2023-01-12T07:04:24.743Z,100219.81
2023-01-12T07:06:55.260Z,100226.59
2023-01-12T07:09:22.436Z,100227.34
2023-01-12T07:11:49.792Z,100231.28
2023-01-12T07:14:17.046Z,100220.75
2023-01-12T07:16:44.129Z,100221.00
2023-01-12T07:19:11.339Z,100222.72
2023-01-12T07:21:38.448Z,100223.44
2023-01-12T07:24:05.831Z,100220.81
2023-01-12T07:26:33.008Z,100209.50
2023-01-12T07:29:00.177Z,100207.66
2023-01-12T07:31:27.608Z,100198.88
2023-01-12T07:33:54.714Z,100202.25
2023-01-12T07:36:22.525Z,100202.25
2023-01-12T07:38:49.576Z,100196.72
2023-01-12T07:41:35.461Z,100191.47
2023-01-12T07:44:02.748Z,100187.94
2023-01-12T07:46:30.140Z,100193.09
2023-01-12T07:48:57.256Z,100182.59
2023-01-12T07:51:24.372Z,100179.59
2023-01-12T07:53:51.490Z,100188.22
2023-01-12T07:56:19.148Z,100173.28
2023-01-12T07:58:49.532Z,100175.97
2023-01-12T08:01:16.944Z,100170.47
2023-01-12T08:03:44.190Z,100178.34
2023-01-12T08:06:11.389Z,100174.03
2023-01-12T08:08:38.502Z,100163.50
2023-01-12T08:11:07.907Z,100167.78
2023-01-12T08:13:35.474Z,100169.47
2023-01-12T08:16:08.091Z,100165.00
2023-01-12T08:18:50.097Z,100156.28
2023-01-12T08:21:20.894Z,100153.53
2023-01-12T08:23:51.021Z,100153.44
2023-01-12T08:26:23.850Z,100154.97
2023-01-12T08:28:58.199Z,100152.09
2023-01-12T08:31:26.237Z,100166.03
2023-01-12T08:33:54.528Z,100156.00
2023-01-12T08:36:22.332Z,100146.16
2023-01-12T08:38:49.500Z,100149.47
2023-01-12T08:41:37.389Z,100141.63
2023-01-12T08:44:10.951Z,100147.53
2023-01-12T08:46:40.470Z,100135.97
2023-01-12T08:49:09.705Z,100125.09
2023-01-12T08:51:39.382Z,100129.22
2023-01-12T08:54:11.344Z,100130.97
2023-01-12T08:56:38.586Z,100128.97
2023-01-12T08:59:05.862Z,100123.63
2023-01-12T09:01:33.570Z,100119.31
2023-01-12T09:04:00.977Z,100129.63
2023-01-12T09:06:30.828Z,100117.38
2023-01-12T09:08:59.855Z,100114.50
2023-01-12T09:11:28.989Z,100099.44
2023-01-12T09:13:58.443Z,100099.28
2023-01-12T09:16:27.164Z,100096.41
2023-01-12T09:18:54.383Z,100099.00
2023-01-12T09:21:23.068Z,100094.72
2023-01-12T09:23:50.680Z,100109.97
2023-01-12T09:26:22.487Z,100090.63
2023-01-12T09:28:51.349Z,100095.69
2023-01-12T09:31:20.799Z,100071.16
2023-01-12T09:33:48.554Z,100080.66
2023-01-12T09:36:26.841Z,100079.50
2023-01-12T09:38:54.240Z,100086.63
2023-01-12T09:41:43.292Z,100075.78
2023-01-12T09:44:44.086Z,100078.97
2023-01-12T09:47:32.768Z,100059.72
2023-01-12T09:50:11.296Z,100067.38
2023-01-12T09:52:44.799Z,100058.44
2023-01-12T09:55:21.158Z,100058.38
2023-01-12T09:57:57.800Z,100053.13
2023-01-12T10:00:25.147Z,100042.25
2023-01-12T10:03:14.715Z,100052.56
2023-01-12T10:05:49.560Z,100042.66
2023-01-12T10:08:54.209Z,100040.75
2023-01-12T10:11:39.447Z,100029.81
2023-01-12T10:14:32.678Z,100026.34
2023-01-12T10:17:08.036Z,100026.81
2023-01-12T10:19:51.159Z,100032.63
2023-01-12T10:22:37.320Z,100021.75
2023-01-12T10:25:26.072Z,100028.53
2023-01-12T10:27:56.769Z,100028.81
2023-01-12T10:30:32.572Z,100027.56
2023-01-12T10:33:31.819Z,100020.16
2023-01-12T10:35:59.624Z,99999.25
2023-01-12T10:38:31.284Z,100006.19
2023-01-12T10:41:17.070Z,100012.28
2023-01-12T10:43:46.816Z,99995.13
2023-01-12T10:46:17.639Z,99991.09
2023-01-12T10:48:46.993Z,99990.06
2023-01-12T10:51:22.380Z,99976.75
2023-01-12T10:53:54.056Z,99987.34
2023-01-12T10:56:36.547Z,99981.25
2023-01-12T10:59:14.801Z,99985.66
2023-01-12T11:01:53.337Z,99991.94
2023-01-12T11:04:22.827Z,99984.16
2023-01-12T11:07:15.609Z,99962.41
2023-01-12T11:09:43.815Z,99960.72
2023-01-12T11:12:33.701Z,99971.50
2023-01-12T11:15:15.416Z,99950.41
2023-01-12T11:17:58.690Z,99951.91
2023-01-12T11:20:28.908Z,99922.47
2023-01-12T11:23:00.552Z,99922.13
2023-01-12T11:25:32.258Z,99939.19
2023-01-12T11:28:22.626Z,99919.34
2023-01-12T11:31:06.142Z,99932.56
2023-01-12T11:33:42.791Z,99902.47
2023-01-12T11:36:12.288Z,99905.81
2023-01-12T11:38:41.552Z,99912.84
2023-01-12T11:41:13.657Z,99902.56
2023-01-12T11:43:55.693Z,99911.16
2023-01-12T11:46:29.109Z,99903.88
2023-01-12T11:49:37.560Z,99906.59
2023-01-12T11:52:04.855Z,99903.78
2023-01-12T11:54:32.092Z,99911.84
2023-01-12T11:57:11.074Z,99892.44
2023-01-12T12:00:15.524Z,99892.91
2023-01-12T12:03:22.890Z,99913.34
2023-01-12T12:06:29.260Z,99891.03
2023-01-12T12:09:22.005Z,99900.31
2023-01-12T12:12:12.497Z,99888.78
2023-01-12T12:14:50.317Z,99882.59
2023-01-12T12:17:42.381Z,99892.69
2023-01-12T12:20:36.245Z,99887.25
2023-01-12T12:23:25.416Z,99891.28
2023-01-12T12:25:52.473Z,99891.78
2023-01-12T12:28:44.343Z,99886.44
2023-01-12T12:31:21.260Z,99878.06
2023-01-12T12:34:15.385Z,99864.94
2023-01-12T12:37:19.708Z,99874.09
2023-01-12T12:40:14.475Z,99866.03
2023-01-12T12:43:35.905Z,99876.53
2023-01-12T12:46:06.846Z,99910.25
2023-01-12T12:48:44.673Z,99902.50
2023-01-12T12:51:13.100Z,99889.81
2023-01-12T12:53:42.002Z,99887.09
2023-01-12T12:56:14.366Z,99883.06
2023-01-12T12:58:43.509Z,99892.34
2023-01-12T13:01:19.732Z,99873.13
2023-01-12T13:04:00.516Z,99891.94
2023-01-12T13:06:39.020Z,99879.59
2023-01-12T13:09:09.271Z,99892.50
2023-01-12T13:12:00.497Z,99892.59
2023-01-12T13:15:15.058Z,99885.97
2023-01-12T13:17:44.630Z,99896.06
2023-01-12T13:20:24.734Z,99893.13
2023-01-12T13:22:52.375Z,99879.34
2023-01-12T13:25:19.413Z,99887.53
2023-01-12T13:28:09.611Z,99886.59
2023-01-12T13:30:40.308Z,99874.09
2023-01-12T13:33:29.713Z,99862.47
2023-01-12T13:36:02.172Z,99898.19
2023-01-12T13:38:43.718Z,99883.47
2023-01-12T13:41:13.591Z,99883.66
2023-01-12T13:43:50.025Z,99877.38
2023-01-12T13:46:28.095Z,99877.38
2023-01-12T13:48:55.912Z,99883.16
2023-01-12T13:51:29.579Z,99874.66
2023-01-12T13:54:14.884Z,99883.06
2023-01-12T13:56:42.961Z,99876.13
2023-01-12T13:59:19.236Z,99875.41
2023-01-12T14:01:48.047Z,99877.91
2023-01-12T14:04:17.382Z,99891.06
2023-01-12T14:07:10.507Z,99883.16
2023-01-12T14:09:57.499Z,99880.34
2023-01-12T14:12:37.564Z,99892.66
2023-01-12T14:15:36.806Z,99877.09
2023-01-12T14:18:15.832Z,99894.44
2023-01-12T14:20:54.529Z,99897.91
2023-01-12T14:23:27.410Z,99914.50
2023-01-12T14:26:13.799Z,99903.03
2023-01-12T14:28:46.158Z,99874.88
2023-01-12T14:31:27.457Z,99892.34
2023-01-12T14:33:57.011Z,99899.47
2023-01-12T14:36:30.009Z,99891.41
2023-01-12T14:38:58.649Z,99877.31
2023-01-12T14:51:17.180Z,99887.63
2023-01-12T14:53:46.485Z,99881.63
2023-01-12T14:56:23.269Z,99896.34
2023-01-12T15:25:36.597Z,99892.09
2023-01-12T17:23:48.446Z,99894.88
